createdAt,value
2022-08-05T00:01:28.576Z,62.00
2022-08-05T00:06:33.372Z,62.10
2022-08-05T00:11:49.191Z,62.40
2022-08-05T00:16:57.883Z,62.80
2022-08-05T00:22:00.610Z,62.60
2022-08-05T00:27:10.305Z,62.90
2022-08-05T00:32:16.477Z,63.30
2022-08-05T00:37:20.216Z,63.00
2022-08-05T00:42:32.876Z,64.30
2022-08-05T00:47:57.266Z,65.80
2022-08-05T00:52:57.984Z,65.20
2022-08-05T00:58:01.875Z,65.70
2022-08-05T01:03:08.144Z,66.10
2022-08-05T01:08:40.661Z,65.70
2022-08-05T01:13:57.465Z,65.60
2022-08-05T01:19:30.421Z,66.00
2022-08-05T01:25:03.233Z,65.80
2022-08-05T01:30:17.813Z,65.90
2022-08-05T01:35:51.176Z,65.20
2022-08-05T01:40:55.564Z,65.60
2022-08-05T01:46:06.989Z,65.20
2022-08-05T01:51:20.200Z,65.90
2022-08-05T01:58:11.541Z,66.60
2022-08-05T02:01:51.816Z,67.20
2022-08-05T02:06:59.048Z,67.70
2022-08-05T02:12:06.691Z,67.60
2022-08-05T02:18:27.608Z,68.40
2022-08-05T02:22:59.740Z,69.50
2022-08-05T02:28:08.689Z,68.30
2022-08-05T02:33:24.653Z,68.20
2022-08-05T02:38:39.278Z,68.70
2022-08-05T02:44:02.290Z,67.30
2022-08-05T02:49:11.118Z,67.50
2022-08-05T02:54:36.394Z,68.10
2022-08-05T02:59:47.831Z,68.00
2022-08-05T03:04:57.497Z,68.10
2022-08-05T03:09:59.943Z,68.40
2022-08-05T03:15:06.976Z,68.20
2022-08-05T03:20:13.831Z,68.30
2022-08-05T03:30:40.988Z,68.50
2022-08-05T03:35:47.754Z,68.50
2022-08-05T03:40:50.818Z,68.90
2022-08-05T03:45:55.318Z,68.60
2022-08-05T03:52:50.493Z,68.90
2022-08-05T03:56:41.328Z,69.20
2022-08-05T04:01:49.244Z,69.40
2022-08-05T04:06:54.593Z,69.50
2022-08-05T04:11:59.562Z,69.30
2022-08-05T04:17:03.239Z,69.20
2022-08-05T04:22:11.991Z,69.60
2022-08-05T04:27:15.489Z,69.60
2022-08-05T04:32:20.124Z,69.60
2022-08-05T04:38:01.278Z,69.90
2022-08-05T04:42:57.829Z,69.80
2022-08-05T04:48:07.637Z,69.70
2022-08-05T04:53:20.498Z,70.60
2022-08-05T04:58:24.254Z,70.00
2022-08-05T05:03:26.835Z,70.00
2022-08-05T05:08:50.178Z,70.20
2022-08-05T05:13:52.654Z,70.50
2022-08-05T05:19:18.598Z,70.30
2022-08-05T05:24:21.693Z,70.40
2022-08-05T05:29:24.069Z,70.60
2022-08-05T05:34:46.492Z,70.60
2022-08-05T05:39:50.443Z,70.50
2022-08-05T05:44:52.922Z,70.70
2022-08-05T05:50:02.249Z,70.40
2022-08-05T05:55:13.534Z,70.30
2022-08-05T06:00:18.323Z,70.70
2022-08-05T06:05:20.931Z,70.70
2022-08-05T06:10:25.069Z,70.70
2022-08-05T06:16:27.574Z,70.90
2022-08-05T06:20:54.452Z,70.60
2022-08-05T06:26:13.765Z,70.40
2022-08-05T06:31:22.028Z,70.30
2022-08-05T06:36:26.024Z,70.00
2022-08-05T06:41:30.193Z,69.90
2022-08-05T06:46:37.477Z,69.80
2022-08-05T06:51:40.864Z,69.50
2022-08-05T06:56:54.768Z,69.40
2022-08-05T07:02:08.220Z,69.20
2022-08-05T07:07:11.232Z,69.10
2022-08-05T07:12:19.165Z,69.20
2022-08-05T07:17:59.948Z,69.60
2022-08-05T07:22:44.252Z,69.20
2022-08-05T07:27:57.063Z,68.90
2022-08-05T07:33:05.176Z,70.50
2022-08-05T07:38:12.403Z,70.00
2022-08-05T07:43:20.751Z,68.20
2022-08-05T07:49:02.903Z,66.60
2022-08-05T07:53:49.842Z,65.20
2022-08-05T07:58:58.787Z,64.60
2022-08-05T08:04:01.825Z,63.80
2022-08-05T08:09:04.749Z,63.60
2022-08-05T08:14:09.491Z,63.90
2022-08-05T08:20:10.719Z,61.40
2022-08-05T08:24:51.405Z,59.80
2022-08-05T08:30:05.157Z,58.90
2022-08-05T08:35:18.352Z,57.60
2022-08-05T08:40:21.952Z,57.90
2022-08-05T08:45:30.423Z,57.60
2022-08-05T08:51:23.210Z,57.30
2022-08-05T09:02:17.997Z,57.50
2022-08-05T09:07:29.129Z,57.70
2022-08-05T09:12:42.059Z,58.50
2022-08-05T09:17:49.651Z,58.60
2022-08-05T09:23:09.174Z,58.90
2022-08-05T09:28:15.010Z,57.80
2022-08-05T09:33:34.980Z,57.70
2022-08-05T09:38:38.049Z,55.20
2022-08-05T09:43:42.324Z,53.60
2022-08-05T09:48:55.307Z,52.50
2022-08-05T09:54:09.287Z,52.20
2022-08-05T09:59:17.045Z,52.50
2022-08-05T10:04:34.971Z,52.10
2022-08-05T10:09:44.899Z,52.50
2022-08-05T10:14:47.915Z,53.40
2022-08-05T10:20:04.563Z,53.60
2022-08-05T10:25:14.468Z,54.00
2022-08-05T10:32:46.896Z,54.50
2022-08-05T10:35:44.110Z,55.80
2022-08-05T10:40:58.076Z,55.80
2022-08-05T10:46:06.706Z,56.80
2022-08-05T10:51:22.074Z,57.10
2022-08-05T10:56:27.547Z,57.50
2022-08-05T11:01:55.662Z,58.40
2022-08-05T11:07:07.557Z,59.00
2022-08-05T11:12:45.333Z,60.40
2022-08-05T11:17:59.813Z,59.80
2022-08-05T11:24:04.857Z,59.70
2022-08-05T11:28:55.994Z,58.70
2022-08-05T11:34:02.171Z,58.10
2022-08-05T11:39:08.907Z,57.90
2022-08-05T11:44:12.799Z,57.70
2022-08-05T11:49:35.363Z,56.90
2022-08-05T11:54:40.731Z,54.50
2022-08-05T11:59:50.226Z,52.90
2022-08-05T12:04:59.167Z,53.40
2022-08-05T12:10:11.459Z,50.40
2022-08-05T12:15:20.343Z,47.10
2022-08-05T12:20:40.733Z,46.40
2022-08-05T12:25:53.571Z,46.30
2022-08-05T12:31:01.959Z,45.00
2022-08-05T12:36:08.412Z,46.00
2022-08-05T12:41:14.775Z,46.10
2022-08-05T12:46:29.552Z,48.80
2022-08-05T12:52:14.033Z,44.90
2022-08-05T12:57:09.283Z,45.60
2022-08-05T13:02:15.953Z,45.50
2022-08-05T13:07:55.855Z,45.90
2022-08-05T13:12:51.130Z,46.20
2022-08-05T13:18:00.215Z,45.20
2022-08-05T13:23:07.362Z,45.60
2022-08-05T13:28:11.495Z,45.40
2022-08-05T13:34:23.462Z,45.20
2022-08-05T13:38:42.804Z,44.80
2022-08-05T13:43:55.006Z,44.70
2022-08-05T13:49:00.495Z,44.70
2022-08-05T13:54:12.509Z,43.70
2022-08-05T13:59:19.999Z,43.60
2022-08-05T14:04:26.747Z,44.00
2022-08-05T14:09:29.819Z,44.20
2022-08-05T14:14:33.966Z,42.80
2022-08-05T14:19:55.374Z,43.40
2022-08-05T14:24:58.802Z,43.80
2022-08-05T14:30:04.210Z,44.20
2022-08-05T14:35:10.741Z,43.70
2022-08-05T14:40:16.883Z,44.10
2022-08-05T14:45:21.219Z,43.90
2022-08-05T14:50:25.277Z,43.70
2022-08-05T14:55:39.394Z,43.90
2022-08-05T15:00:58.774Z,44.30
2022-08-05T15:06:07.402Z,44.70
2022-08-05T15:11:16.062Z,44.80
2022-08-05T15:16:20.194Z,44.50
2022-08-05T15:21:24.741Z,44.60
2022-08-05T15:26:33.163Z,45.00
2022-08-05T15:31:38.422Z,45.00
2022-08-05T15:36:42.326Z,44.60
2022-08-05T15:41:55.655Z,44.80
2022-08-05T15:47:02.076Z,44.90
2022-08-05T15:52:16.230Z,45.10
2022-08-05T15:57:20.161Z,45.40
2022-08-05T16:02:25.616Z,45.80
2022-08-05T16:07:30.487Z,46.10
2022-08-05T16:12:33.160Z,46.20
2022-08-05T16:17:37.050Z,46.30
2022-08-05T16:22:39.548Z,46.30
2022-08-05T16:28:00.237Z,46.60
2022-08-05T16:33:08.309Z,47.10
2022-08-05T16:38:21.879Z,47.50
2022-08-05T16:43:29.330Z,48.20
2022-08-05T16:48:35.603Z,47.30
2022-08-05T16:54:04.772Z,47.40
2022-08-05T16:59:08.505Z,47.50
2022-08-05T17:04:12.848Z,47.70
2022-08-05T17:09:17.695Z,47.70
2022-08-05T17:14:22.304Z,47.60
2022-08-05T17:19:38.661Z,47.40
2022-08-05T17:24:45.421Z,47.30
2022-08-05T17:30:00.615Z,47.50
2022-08-05T17:35:08.061Z,47.70
2022-08-05T17:40:17.347Z,47.90
2022-08-05T17:45:21.810Z,48.10
2022-08-05T17:50:30.500Z,48.20
2022-08-05T17:55:39.524Z,48.30
2022-08-05T18:00:47.420Z,48.10
2022-08-05T18:05:53.715Z,48.30
2022-08-05T18:10:58.681Z,48.70
2022-08-05T18:16:01.142Z,49.10
2022-08-05T18:21:13.276Z,49.60
2022-08-05T18:26:29.008Z,49.60
2022-08-05T18:31:33.740Z,49.40
2022-08-05T18:36:39.280Z,49.50
2022-08-05T18:41:55.147Z,49.90
2022-08-05T18:47:05.058Z,50.00
2022-08-05T18:52:11.550Z,50.10
2022-08-05T18:57:17.173Z,50.50
2022-08-05T19:02:27.708Z,50.60
2022-08-05T19:07:46.713Z,51.00
2022-08-05T19:12:49.642Z,51.60
2022-08-05T19:18:08.771Z,51.70
2022-08-05T19:24:05.771Z,52.00
2022-08-05T19:28:38.643Z,52.50
2022-08-05T19:33:48.261Z,52.70
2022-08-05T19:39:01.938Z,52.30
2022-08-05T19:44:13.671Z,52.90
2022-08-05T19:49:17.651Z,52.50
2022-08-05T19:54:29.375Z,53.20
2022-08-05T19:59:55.889Z,53.90
2022-08-05T20:04:58.479Z,54.20
2022-08-05T20:10:11.804Z,54.20
2022-08-05T20:15:23.342Z,54.50
2022-08-05T20:20:44.127Z,54.30
2022-08-05T20:25:48.843Z,54.60
2022-08-05T20:30:54.306Z,54.70
2022-08-05T20:35:56.851Z,54.40
2022-08-05T20:41:04.662Z,54.70
2022-08-05T20:46:11.013Z,55.30
2022-08-05T20:51:20.975Z,55.50
2022-08-05T20:56:28.208Z,55.70
2022-08-05T21:01:38.046Z,56.10
2022-08-05T21:06:45.393Z,55.90
2022-08-05T21:12:06.951Z,56.30
2022-08-05T21:17:13.488Z,56.50
2022-08-05T21:22:21.908Z,56.60
2022-08-05T21:27:27.948Z,57.00
2022-08-05T21:32:41.411Z,57.20
2022-08-05T21:37:52.976Z,57.30
2022-08-05T21:42:59.192Z,57.50
2022-08-05T21:48:02.608Z,57.90
2022-08-05T21:53:17.567Z,58.00
2022-08-05T21:58:24.946Z,58.10
2022-08-05T22:03:48.430Z,58.40
2022-08-05T22:08:55.789Z,58.50
2022-08-05T22:14:19.957Z,58.70
2022-08-05T22:20:01.003Z,59.10
2022-08-05T22:24:52.431Z,59.00
2022-08-05T22:29:57.569Z,59.80
2022-08-05T22:35:00.456Z,59.60
2022-08-05T22:40:03.149Z,59.60
2022-08-05T22:45:11.317Z,59.70
2022-08-05T22:50:19.962Z,60.30
2022-08-05T22:55:24.804Z,60.20
2022-08-05T23:00:30.317Z,60.30
2022-08-05T23:05:36.176Z,60.50
2022-08-05T23:10:39.277Z,60.40
2022-08-05T23:15:43.296Z,60.50
2022-08-05T23:20:53.202Z,61.50
2022-08-05T23:25:56.232Z,60.40
2022-08-05T23:31:07.066Z,60.40
2022-08-05T23:36:19.450Z,60.60
2022-08-05T23:41:22.257Z,60.50
2022-08-05T23:46:27.848Z,60.90
2022-08-05T23:51:33.076Z,61.20
2022-08-05T23:56:37.108Z,61.10
